createdAt,value
2018-10-01T00:01:38.286Z,12.02
2018-10-01T00:04:09.562Z,12.00
2018-10-01T00:06:40.709Z,11.88
2018-10-01T00:09:11.920Z,11.82
2018-10-01T00:11:43.559Z,11.67
2018-10-01T00:14:14.828Z,11.60
2018-10-01T00:16:46.048Z,11.56
2018-10-01T00:19:22.751Z,11.55
2018-10-01T00:21:58.804Z,11.55
2018-10-01T00:24:30.245Z,11.56
2018-10-01T00:27:01.634Z,11.52
2018-10-01T00:29:32.817Z,11.51
2018-10-01T00:32:04.036Z,11.57
2018-10-01T00:34:35.247Z,11.54
2018-10-01T00:37:06.751Z,11.43
2018-10-01T00:39:38.303Z,11.43
2018-10-01T00:44:34.410Z,11.36
2018-10-01T00:47:05.637Z,11.31
2018-10-01T00:49:36.771Z,11.28
2018-10-01T00:52:08.027Z,11.29
2018-10-01T00:54:38.931Z,11.21
2018-10-01T00:57:10.590Z,11.15
2018-10-01T00:59:41.748Z,11.18
2018-10-01T01:02:13.437Z,11.18
2018-10-01T01:04:44.668Z,11.14
2018-10-01T01:07:15.762Z,11.07
2018-10-01T01:09:46.821Z,11.10
2018-10-01T01:12:18.262Z,11.09
2018-10-01T01:14:48.608Z,11.05
2018-10-01T01:17:19.770Z,11.03
2018-10-01T01:19:51.026Z,11.12
2018-10-01T01:22:22.576Z,11.16
2018-10-01T01:24:53.736Z,11.10
2018-10-01T01:27:24.915Z,11.01
2018-10-01T01:29:56.026Z,10.98
2018-10-01T01:32:27.665Z,10.95
2018-10-01T01:34:59.034Z,11.05
2018-10-01T01:37:30.635Z,11.07
2018-10-01T01:40:01.895Z,11.05
2018-10-01T01:42:33.584Z,11.12
2018-10-01T01:45:04.714Z,11.15
2018-10-01T01:47:35.669Z,11.19
2018-10-01T01:50:07.036Z,11.18
2018-10-01T01:52:38.612Z,11.17
2018-10-01T01:55:09.822Z,11.18
2018-10-01T01:57:41.241Z,11.22
2018-10-01T02:00:12.679Z,11.23
2018-10-01T02:02:43.796Z,11.25
2018-10-01T02:05:14.893Z,11.33
2018-10-01T02:07:46.287Z,11.34
2018-10-01T02:10:17.580Z,11.40
2018-10-01T02:12:47.646Z,11.42
2018-10-01T02:15:18.684Z,11.45
2018-10-01T02:17:49.896Z,11.49
2018-10-01T02:20:21.274Z,11.53
2018-10-01T02:22:52.715Z,11.51
2018-10-01T02:25:23.927Z,11.56
2018-10-01T02:27:55.551Z,11.54
2018-10-01T02:30:26.695Z,11.54
2018-10-01T02:32:57.895Z,11.57
2018-10-01T02:35:29.031Z,11.55
2018-10-01T02:38:00.522Z,11.58
2018-10-01T02:40:31.831Z,11.60
2018-10-01T02:43:03.267Z,11.67
2018-10-01T02:45:33.532Z,11.73
2018-10-01T02:48:04.667Z,11.74
2018-10-01T02:50:36.029Z,11.77
2018-10-01T02:53:12.426Z,11.70
2018-10-01T02:55:43.694Z,11.66
2018-10-01T02:58:14.802Z,11.72
2018-10-01T03:00:45.668Z,11.69
2018-10-01T03:03:16.790Z,11.71
2018-10-01T03:05:48.053Z,11.71
2018-10-01T03:08:19.666Z,11.53
2018-10-01T03:10:50.787Z,11.45
2018-10-01T03:13:21.822Z,11.43
2018-10-01T03:15:53.619Z,11.46
2018-10-01T03:18:25.018Z,11.44
2018-10-01T03:20:56.385Z,11.38
2018-10-01T03:23:27.650Z,11.40
2018-10-01T03:25:58.924Z,11.39
2018-10-01T03:28:29.900Z,11.42
2018-10-01T03:31:01.255Z,11.36
2018-10-01T03:33:32.563Z,11.32
2018-10-01T03:36:03.738Z,11.31
2018-10-01T03:38:34.814Z,11.35
2018-10-01T03:41:06.278Z,11.33
2018-10-01T03:43:37.550Z,11.34
2018-10-01T03:46:08.801Z,11.34
2018-10-01T03:48:40.395Z,11.40
2018-10-01T03:51:11.626Z,11.37
2018-10-01T03:53:42.796Z,11.37
2018-10-01T03:56:14.261Z,11.36
2018-10-01T03:58:45.542Z,11.18
2018-10-01T04:01:16.748Z,11.22
2018-10-01T04:03:47.810Z,11.25
2018-10-01T04:06:19.290Z,11.29
2018-10-01T04:08:50.731Z,11.36
2018-10-01T04:11:22.245Z,11.41
2018-10-01T04:13:53.596Z,11.46
2018-10-01T04:16:25.806Z,11.39
2018-10-01T04:18:57.329Z,11.30
2018-10-01T04:21:27.554Z,11.19
2018-10-01T04:23:58.657Z,11.16
2018-10-01T04:26:29.692Z,11.13
2018-10-01T04:29:00.816Z,11.12
2018-10-01T04:31:32.253Z,11.26
2018-10-01T04:36:06.911Z,11.39
2018-10-01T04:38:38.576Z,11.46
2018-10-01T04:41:10.564Z,11.47
2018-10-01T04:43:42.267Z,11.53
2018-10-01T04:46:13.782Z,11.55
2018-10-01T04:48:44.817Z,11.56
2018-10-01T04:51:16.245Z,11.53
2018-10-01T04:53:47.690Z,11.53
2018-10-01T04:56:18.753Z,11.55
2018-10-01T04:58:49.814Z,11.54
2018-10-01T05:01:21.357Z,11.48
2018-10-01T05:03:51.565Z,11.52
2018-10-01T05:06:22.706Z,11.51
2018-10-01T05:08:53.672Z,11.40
2018-10-01T05:11:25.372Z,11.33
2018-10-01T05:13:56.906Z,11.27
2018-10-01T05:16:28.956Z,11.18
2018-10-01T05:19:00.675Z,11.12
2018-10-01T05:21:30.642Z,11.05
2018-10-01T05:24:02.383Z,11.02
2018-10-01T05:26:34.028Z,11.06
2018-10-01T05:29:05.787Z,11.06
2018-10-01T05:31:37.564Z,11.06
2018-10-01T05:34:09.032Z,10.96
2018-10-01T05:36:40.635Z,10.96
2018-10-01T05:39:13.606Z,10.82
2018-10-01T05:41:45.637Z,10.95
2018-10-01T05:44:17.042Z,11.05
2018-10-01T05:46:48.708Z,11.08
2018-10-01T05:49:20.397Z,11.13
2018-10-01T05:51:51.904Z,11.00
2018-10-01T05:54:23.784Z,11.09
2018-10-01T05:56:55.659Z,11.06
2018-10-01T05:59:25.583Z,11.22
2018-10-01T06:01:57.026Z,11.31
2018-10-01T06:04:28.694Z,11.19
2018-10-01T06:07:00.373Z,11.20
2018-10-01T06:09:30.952Z,11.24
2018-10-01T06:12:02.046Z,11.27
2018-10-01T06:14:33.721Z,11.39
2018-10-01T06:17:05.359Z,11.29
2018-10-01T06:19:35.799Z,11.20
2018-10-01T06:22:07.553Z,11.19
2018-10-01T06:24:38.278Z,11.12
2018-10-01T06:27:09.819Z,11.06
2018-10-01T06:29:41.831Z,11.07
2018-10-01T06:32:13.035Z,10.82
2018-10-01T06:34:44.756Z,10.88
2018-10-01T06:37:15.831Z,10.79
2018-10-01T06:39:47.662Z,10.93
2018-10-01T06:42:17.934Z,10.93
2018-10-01T06:44:49.677Z,11.02
2018-10-01T06:47:20.654Z,11.26
2018-10-01T06:49:52.031Z,11.29
2018-10-01T06:52:23.633Z,11.54
2018-10-01T06:54:55.026Z,11.89
2018-10-01T06:57:26.668Z,12.16
2018-10-01T06:59:58.033Z,12.29
2018-10-01T07:02:29.661Z,12.54
2018-10-01T07:05:01.434Z,12.42
2018-10-01T07:07:32.895Z,12.38
2018-10-01T07:10:04.629Z,12.50
2018-10-01T07:12:35.900Z,12.46
2018-10-01T07:15:07.788Z,12.34
2018-10-01T07:17:39.387Z,12.67
2018-10-01T07:20:09.731Z,13.67
2018-10-01T07:22:41.079Z,14.58
2018-10-01T07:25:12.904Z,15.39
2018-10-01T07:27:44.363Z,15.02
2018-10-01T07:30:15.676Z,14.61
2018-10-01T07:32:47.375Z,14.63
2018-10-01T07:35:18.791Z,14.68
2018-10-01T07:37:50.397Z,14.74
2018-10-01T07:40:21.768Z,14.82
2018-10-01T07:42:53.371Z,14.89
2018-10-01T07:45:24.840Z,14.77
2018-10-01T07:47:56.800Z,14.64
2018-10-01T07:50:28.383Z,14.71
2018-10-01T07:52:59.725Z,14.69
2018-10-01T07:55:31.376Z,14.65
2018-10-01T07:58:02.763Z,15.04
2018-10-01T08:00:35.031Z,15.38
2018-10-01T08:03:06.628Z,15.88
2018-10-01T08:05:38.019Z,16.25
2018-10-01T08:08:09.682Z,16.00
2018-10-01T08:10:41.708Z,15.60
2018-10-01T08:13:13.362Z,15.42
2018-10-01T08:15:44.797Z,15.26
2018-10-01T08:18:16.723Z,15.05
2018-10-01T08:20:48.376Z,14.82
2018-10-01T08:23:19.831Z,14.64
2018-10-01T08:25:51.672Z,14.57
2018-10-01T08:28:23.380Z,14.79
2018-10-01T08:30:55.031Z,15.60
2018-10-01T08:33:26.664Z,16.01
2018-10-01T08:35:58.047Z,16.11
2018-10-01T08:38:29.756Z,16.11
2018-10-01T08:41:01.834Z,16.08
2018-10-01T08:43:33.706Z,16.26
2018-10-01T08:46:05.662Z,16.67
2018-10-01T08:48:39.042Z,16.22
2018-10-01T08:51:22.266Z,16.18
2018-10-01T08:53:58.777Z,16.00
2018-10-01T08:56:30.605Z,16.36
2018-10-01T08:59:02.606Z,16.56
2018-10-01T09:01:34.356Z,16.21
2018-10-01T09:04:06.047Z,16.30
2018-10-01T09:06:37.703Z,16.23
2018-10-01T09:09:11.680Z,15.86
2018-10-01T09:11:43.583Z,15.72
2018-10-01T09:14:14.947Z,16.18
2018-10-01T09:16:46.700Z,16.24
2018-10-01T09:19:18.480Z,16.10
2018-10-01T09:21:49.907Z,15.73
2018-10-01T09:24:21.775Z,15.76
2018-10-01T09:26:53.531Z,15.86
2018-10-01T09:29:25.089Z,16.22
2018-10-01T09:31:56.711Z,16.23
2018-10-01T09:34:28.064Z,16.12
2018-10-01T09:36:59.773Z,16.40
2018-10-01T09:39:31.394Z,16.78
2018-10-01T09:42:03.049Z,16.79
2018-10-01T09:44:34.846Z,17.15
2018-10-01T09:47:06.754Z,17.49
2018-10-01T09:49:38.589Z,17.50
2018-10-01T09:52:09.869Z,17.53
2018-10-01T09:54:41.769Z,17.41
2018-10-01T09:57:13.602Z,17.25
2018-10-01T09:59:44.845Z,17.22
2018-10-01T10:02:16.637Z,17.07
2018-10-01T10:04:48.410Z,16.84
2018-10-01T10:07:20.048Z,16.55
2018-10-01T10:09:51.669Z,16.51
2018-10-01T10:12:23.044Z,16.59
2018-10-01T10:14:54.659Z,16.85
2018-10-01T10:17:25.952Z,16.72
2018-10-01T10:19:57.688Z,16.66
2018-10-01T10:22:29.402Z,16.57
2018-10-01T10:25:00.780Z,16.47
2018-10-01T10:27:32.407Z,16.31
2018-10-01T10:30:03.901Z,16.22
2018-10-01T10:32:35.532Z,16.29
2018-10-01T10:35:07.584Z,16.44
2018-10-01T10:37:39.048Z,16.51
2018-10-01T10:40:10.687Z,16.41
2018-10-01T10:42:42.645Z,16.59
2018-10-01T10:45:14.038Z,16.67
2018-10-01T10:47:45.523Z,16.49
2018-10-01T10:50:17.056Z,16.08
2018-10-01T10:52:48.650Z,16.10
2018-10-01T10:55:19.843Z,16.09
2018-10-01T10:57:51.392Z,16.14
2018-10-01T11:00:23.704Z,16.22
2018-10-01T11:02:56.394Z,16.34
2018-10-01T11:05:27.861Z,16.28
2018-10-01T11:07:59.682Z,16.11
2018-10-01T11:10:31.043Z,15.94
2018-10-01T11:13:02.676Z,16.11
2018-10-01T11:15:34.046Z,16.23
2018-10-01T11:18:05.758Z,16.51
2018-10-01T11:20:37.688Z,16.77
2018-10-01T11:23:09.665Z,16.92
2018-10-01T11:25:41.373Z,16.86
2018-10-01T11:28:11.851Z,16.89
2018-10-01T11:30:43.683Z,16.92
2018-10-01T11:33:15.126Z,16.82
2018-10-01T11:35:46.724Z,16.28
2018-10-01T11:38:18.073Z,16.19
2018-10-01T11:40:50.735Z,15.96
2018-10-01T11:43:22.039Z,15.71
2018-10-01T11:45:53.654Z,16.01
2018-10-01T11:48:25.563Z,16.32
2018-10-01T11:50:57.046Z,16.21
2018-10-01T11:53:28.772Z,16.41
2018-10-01T11:56:00.491Z,16.87
2018-10-01T11:58:31.926Z,17.12
2018-10-01T12:01:03.515Z,17.21
2018-10-01T12:03:34.969Z,17.25
2018-10-01T12:06:06.388Z,17.90
2018-10-01T12:08:37.759Z,17.74
2018-10-01T12:11:08.816Z,17.33
2018-10-01T12:13:40.685Z,17.02
2018-10-01T12:16:12.588Z,16.88
2018-10-01T12:18:44.042Z,16.69
2018-10-01T12:21:15.801Z,16.35
2018-10-01T12:23:47.673Z,16.23
2018-10-01T12:26:18.921Z,16.13
2018-10-01T12:28:50.700Z,16.12
2018-10-01T12:31:22.389Z,15.92
2018-10-01T12:33:54.545Z,15.91
2018-10-01T12:36:26.020Z,15.62
2018-10-01T12:38:57.699Z,15.68
2018-10-01T12:41:29.076Z,15.84
2018-10-01T12:44:00.712Z,15.99
2018-10-01T12:46:32.371Z,16.08
2018-10-01T12:49:04.029Z,15.85
2018-10-01T12:51:35.757Z,15.73
2018-10-01T12:54:07.389Z,15.71
2018-10-01T12:56:39.029Z,15.73
2018-10-01T12:59:10.661Z,15.75
2018-10-01T13:01:42.392Z,15.52
2018-10-01T13:04:13.932Z,15.24
2018-10-01T13:06:45.759Z,15.01
2018-10-01T13:09:17.370Z,14.97
2018-10-01T13:11:48.697Z,14.98
2018-10-01T13:14:19.813Z,15.04
2018-10-01T13:16:51.687Z,14.82
2018-10-01T13:19:23.038Z,14.93
2018-10-01T13:21:54.708Z,15.12
2018-10-01T13:24:26.717Z,15.33
2018-10-01T13:26:58.694Z,15.16
2018-10-01T13:29:30.697Z,15.10
2018-10-01T13:32:02.518Z,15.00
2018-10-01T13:34:34.239Z,14.83
2018-10-01T13:37:05.714Z,14.71
2018-10-01T13:39:37.038Z,14.67
2018-10-01T13:42:10.813Z,14.60
2018-10-01T13:44:42.756Z,14.53
2018-10-01T13:47:14.428Z,14.38
2018-10-01T13:49:45.849Z,14.41
2018-10-01T13:52:17.666Z,14.24
2018-10-01T13:54:49.423Z,14.10
2018-10-01T13:57:20.920Z,14.03
2018-10-01T13:59:52.540Z,13.96
2018-10-01T14:02:23.829Z,13.69
2018-10-01T14:04:55.687Z,13.55
2018-10-01T14:07:27.389Z,13.39
2018-10-01T14:09:59.384Z,13.31
2018-10-01T14:12:30.645Z,13.26
2018-10-01T14:15:02.423Z,13.15
2018-10-01T14:17:33.906Z,12.96
2018-10-01T14:20:05.768Z,12.87
2018-10-01T14:22:37.642Z,12.76
2018-10-01T14:25:09.662Z,12.68
2018-10-01T14:27:41.627Z,12.60
2018-10-01T14:30:13.442Z,12.60
2018-10-01T14:32:43.824Z,12.64
2018-10-01T14:35:15.675Z,12.53
2018-10-01T14:37:47.390Z,12.53
2018-10-01T14:40:19.040Z,12.56
2018-10-01T14:42:50.694Z,12.63
2018-10-01T14:45:22.685Z,12.64
2018-10-01T14:47:54.417Z,12.69
2018-10-01T14:50:25.800Z,12.68
2018-10-01T14:52:57.670Z,12.61
2018-10-01T14:55:29.624Z,12.55
2018-10-01T14:58:01.361Z,12.54
2018-10-01T15:00:33.907Z,12.62
2018-10-01T15:03:05.281Z,12.53
2018-10-01T15:05:36.674Z,12.53
2018-10-01T15:08:08.776Z,12.41
2018-10-01T15:11:32.912Z,12.52
2018-10-01T15:14:04.659Z,12.55
2018-10-01T15:16:36.277Z,12.40
2018-10-01T15:19:06.592Z,12.46
2018-10-01T15:21:36.667Z,12.39
2018-10-01T15:24:06.672Z,12.46
2018-10-01T15:26:38.380Z,12.33
2018-10-01T15:29:09.726Z,12.23
2018-10-01T15:31:40.923Z,12.29
2018-10-01T15:34:12.595Z,12.35
2018-10-01T15:36:43.710Z,12.50
2018-10-01T15:39:15.403Z,12.49
2018-10-01T15:41:46.700Z,12.35
2018-10-01T15:44:18.054Z,12.30
2018-10-01T15:46:49.612Z,12.21
2018-10-01T15:49:20.661Z,12.08
2018-10-01T15:51:52.026Z,12.16
2018-10-01T15:54:23.564Z,12.15
2018-10-01T15:56:53.567Z,12.14
2018-10-01T15:59:23.544Z,12.01
2018-10-01T16:01:53.590Z,11.91
2018-10-01T16:04:24.705Z,11.76
2018-10-01T16:06:56.666Z,11.74
2018-10-01T16:11:58.806Z,11.69
2018-10-01T16:14:28.803Z,11.68
2018-10-01T16:17:00.234Z,11.81
2018-10-01T16:19:31.594Z,11.91
2018-10-01T16:22:02.983Z,11.93
2018-10-01T16:24:33.891Z,11.89
2018-10-01T16:27:06.406Z,11.99
2018-10-01T16:29:36.532Z,12.10
2018-10-01T16:32:07.743Z,12.20
2018-10-01T16:34:38.812Z,12.21
2018-10-01T16:37:09.908Z,12.19
2018-10-01T16:39:40.905Z,12.14
2018-10-01T16:42:12.481Z,12.19
2018-10-01T16:44:43.821Z,12.08
2018-10-01T16:47:15.285Z,12.11
2018-10-01T16:49:46.545Z,12.05
2018-10-01T16:52:17.782Z,12.01
2018-10-01T16:54:49.555Z,12.07
2018-10-01T16:57:21.416Z,11.84
2018-10-01T16:59:52.641Z,11.98
2018-10-01T17:02:23.825Z,12.01
2018-10-01T17:04:55.041Z,12.11
2018-10-01T17:07:26.768Z,12.15
2018-10-01T17:09:58.027Z,12.08
2018-10-01T17:12:29.594Z,11.97
2018-10-01T17:15:00.727Z,11.91
2018-10-01T17:17:32.057Z,11.87
2018-10-01T17:20:03.610Z,11.88
2018-10-01T17:22:34.783Z,11.83
2018-10-01T17:25:06.774Z,11.76
2018-10-01T17:27:38.036Z,11.75
2018-10-01T17:30:09.731Z,11.81
2018-10-01T17:32:41.025Z,11.68
2018-10-01T17:35:12.709Z,11.66
2018-10-01T17:37:43.923Z,11.50
2018-10-01T17:40:15.624Z,11.47
2018-10-01T17:42:45.955Z,11.53
2018-10-01T17:45:17.588Z,11.44
2018-10-01T17:47:49.411Z,11.30
2018-10-01T17:50:20.642Z,11.37
2018-10-01T17:55:27.386Z,11.44
2018-10-01T17:57:58.614Z,11.35
2018-10-01T18:00:41.741Z,11.26
2018-10-01T18:03:13.456Z,11.23
2018-10-01T18:05:44.699Z,11.18
2018-10-01T18:08:16.376Z,11.08
2018-10-01T18:10:47.663Z,11.07
2018-10-01T18:13:19.434Z,11.31
2018-10-01T18:15:50.670Z,11.34
2018-10-01T18:18:21.822Z,11.35
2018-10-01T18:20:53.531Z,11.32
2018-10-01T18:23:24.672Z,11.34
2018-10-01T18:25:55.808Z,11.36
2018-10-01T18:28:26.702Z,11.37
2018-10-01T18:30:57.817Z,11.42
2018-10-01T18:36:12.346Z,11.38
2018-10-01T18:40:51.631Z,11.46
2018-10-01T18:43:19.993Z,11.39
2018-10-01T18:45:48.705Z,11.42
2018-10-01T18:51:02.310Z,11.42
2018-10-01T18:53:32.298Z,11.43
2018-10-01T18:56:00.710Z,11.32
2018-10-01T18:58:30.310Z,11.35
2018-10-01T19:00:59.020Z,11.28
2018-10-01T19:03:28.448Z,11.24
2018-10-01T19:05:58.335Z,11.18
2018-10-01T19:08:28.184Z,11.13
2018-10-01T19:10:57.792Z,11.15
2018-10-01T19:13:27.323Z,11.12
2018-10-01T19:15:57.007Z,11.08
2018-10-01T19:18:26.395Z,11.06
2018-10-01T19:20:56.209Z,11.05
2018-10-01T19:23:25.786Z,11.10
2018-10-01T19:25:55.383Z,10.95
2018-10-01T19:28:25.288Z,10.92
2018-10-01T19:30:54.002Z,10.94
2018-10-01T19:33:23.727Z,10.99
2018-10-01T19:35:53.539Z,10.99
2018-10-01T19:38:23.443Z,10.93
2018-10-01T19:40:53.892Z,10.88
2018-10-01T19:43:24.914Z,10.94
2018-10-01T19:45:54.792Z,10.94
2018-10-01T19:48:26.200Z,10.95
2018-10-01T19:50:57.550Z,10.96
2018-10-01T19:53:27.404Z,11.00
2018-10-01T19:55:57.228Z,11.00
2018-10-01T19:58:27.353Z,10.96
2018-10-01T20:00:57.339Z,11.01
2018-10-01T20:03:27.292Z,10.98
2018-10-01T20:05:57.261Z,10.97
2018-10-01T20:08:27.174Z,10.86
2018-10-01T20:10:58.495Z,10.87
2018-10-01T20:13:29.155Z,10.87
2018-10-01T20:15:59.381Z,10.83
2018-10-01T20:18:29.285Z,10.81
2018-10-01T20:20:58.143Z,10.81
2018-10-01T20:23:29.060Z,10.77
2018-10-01T20:25:58.869Z,10.57
2018-10-01T20:28:28.982Z,10.67
2018-10-01T20:30:58.372Z,10.67
2018-10-01T20:33:28.553Z,10.63
2018-10-01T20:35:58.800Z,10.65
2018-10-01T20:38:29.230Z,10.62
2018-10-01T20:40:59.489Z,10.73
2018-10-01T20:43:29.408Z,10.72
2018-10-01T20:45:59.455Z,10.66
2018-10-01T20:48:29.559Z,10.70
2018-10-01T20:50:59.302Z,10.56
2018-10-01T20:53:27.730Z,10.45
2018-10-01T20:55:58.720Z,10.44
2018-10-01T20:58:29.190Z,10.48
2018-10-01T21:00:59.270Z,10.48
2018-10-01T21:03:27.907Z,10.45
2018-10-01T21:05:57.603Z,10.50
2018-10-01T21:08:27.572Z,10.51
2018-10-01T21:10:57.383Z,10.45
2018-10-01T21:13:27.211Z,10.52
2018-10-01T21:15:57.418Z,10.55
2018-10-01T21:18:28.216Z,10.55
2018-10-01T21:20:59.426Z,10.53
2018-10-01T21:23:29.358Z,10.59
2018-10-01T21:25:59.287Z,10.64
2018-10-01T21:28:27.585Z,10.62
2018-10-01T21:30:57.318Z,10.59
2018-10-01T21:33:27.446Z,10.54
2018-10-01T21:35:57.193Z,10.54
2018-10-01T21:38:27.481Z,10.51
2018-10-01T21:40:57.944Z,10.45
2018-10-01T21:43:27.841Z,10.42
2018-10-01T21:45:57.446Z,10.44
2018-10-01T21:48:27.459Z,10.51
2018-10-01T21:50:57.430Z,10.50
2018-10-01T21:53:27.498Z,10.45
2018-10-01T21:55:57.297Z,10.40
2018-10-01T21:58:26.012Z,10.50
2018-10-01T22:01:01.083Z,10.50
2018-10-01T22:03:30.661Z,10.46
2018-10-01T22:06:00.244Z,10.44
2018-10-01T22:08:29.794Z,10.48
2018-10-01T22:10:59.329Z,10.47
2018-10-01T22:13:29.175Z,10.44
2018-10-01T22:15:58.686Z,10.45
2018-10-01T22:18:28.258Z,10.44
2018-10-01T22:20:58.300Z,10.50
2018-10-01T22:23:26.722Z,10.46
2018-10-01T22:25:57.308Z,10.39
2018-10-01T22:28:25.996Z,10.38
2018-10-01T22:30:55.581Z,10.40
2018-10-01T22:33:25.314Z,10.32
2018-10-01T22:35:55.213Z,10.25
2018-10-01T22:38:24.989Z,10.19
2018-10-01T22:40:54.472Z,10.11
2018-10-01T22:43:24.200Z,10.04
2018-10-01T22:45:54.409Z,10.03
2018-10-01T22:48:24.314Z,10.05
2018-10-01T22:50:52.703Z,10.14
2018-10-01T22:53:22.397Z,10.19
2018-10-01T22:55:52.180Z,10.18
2018-10-01T22:58:21.631Z,10.17
2018-10-01T23:00:51.321Z,10.08
2018-10-01T23:03:21.197Z,10.13
2018-10-01T23:05:50.641Z,10.07
2018-10-01T23:08:20.264Z,10.16
2018-10-01T23:10:48.443Z,10.08
2018-10-01T23:13:18.174Z,10.01
2018-10-01T23:15:48.004Z,10.02
2018-10-01T23:18:17.369Z,9.99
2018-10-01T23:20:47.211Z,9.89
2018-10-01T23:23:16.450Z,9.81
2018-10-01T23:25:46.181Z,9.80
2018-10-01T23:28:15.595Z,9.79
2018-10-01T23:30:45.262Z,9.86
2018-10-01T23:33:15.190Z,9.64
2018-10-01T23:35:44.992Z,9.71
2018-10-01T23:38:14.493Z,9.61
2018-10-01T23:40:44.324Z,9.56
2018-10-01T23:43:13.996Z,9.61
2018-10-01T23:45:43.375Z,9.61
2018-10-01T23:48:13.198Z,9.72
2018-10-01T23:50:42.785Z,9.65
2018-10-01T23:53:12.295Z,9.69
2018-10-01T23:55:41.369Z,9.61
2018-10-01T23:58:11.188Z,9.57
